createdAt,value
2023-03-04T00:00:53.560Z,102433.02
2023-03-04T00:01:54.455Z,102433.34
2023-03-04T00:02:55.354Z,102433.94
2023-03-04T00:03:55.500Z,102433.94
2023-03-04T00:04:56.286Z,102433.70
2023-03-04T00:05:56.667Z,102433.73
2023-03-04T00:06:56.851Z,102434.17
2023-03-04T00:07:56.985Z,102434.16
2023-03-04T00:08:57.382Z,102434.36
2023-03-04T00:09:57.574Z,102434.30
2023-03-04T00:10:57.600Z,102434.36
2023-03-04T00:11:57.979Z,102433.87
2023-03-04T00:12:58.250Z,102433.70
2023-03-04T00:13:58.420Z,102433.87
2023-03-04T00:14:58.560Z,102434.63
2023-03-04T00:15:59.448Z,102433.97
2023-03-04T00:16:59.753Z,102434.23
2023-03-04T00:18:00.523Z,102433.80
2023-03-04T00:19:01.082Z,102434.00
2023-03-04T00:20:01.585Z,102433.77
2023-03-04T00:21:01.649Z,102433.13
2023-03-04T00:22:02.297Z,102433.46
2023-03-04T00:23:03.057Z,102433.46
2023-03-04T00:24:03.300Z,102432.73
2023-03-04T00:25:03.822Z,102432.00
2023-03-04T00:26:04.042Z,102431.77
2023-03-04T00:27:04.372Z,102431.86
2023-03-04T00:28:04.828Z,102431.06
2023-03-04T00:29:05.182Z,102430.40
2023-03-04T00:30:05.720Z,102429.84
2023-03-04T00:31:06.345Z,102428.74
2023-03-04T00:31:17.324Z,102428.38
2023-03-04T00:32:15.257Z,102427.48
2023-03-04T00:33:15.856Z,102426.64
2023-03-04T00:34:16.001Z,102425.92
2023-03-04T00:35:16.007Z,102424.92
2023-03-04T00:36:16.182Z,102424.78
2023-03-04T00:37:17.084Z,102424.12
2023-03-04T00:38:17.122Z,102423.06
2023-03-04T00:39:17.261Z,102422.80
2023-03-04T00:40:18.226Z,102422.30
2023-03-04T00:41:18.371Z,102421.60
2023-03-04T00:42:18.439Z,102420.94
2023-03-04T00:43:18.563Z,102420.25
2023-03-04T00:44:18.583Z,102420.25
2023-03-04T00:45:18.712Z,102420.05
2023-03-04T00:46:19.293Z,102419.98
2023-03-04T00:47:20.023Z,102419.89
2023-03-04T00:48:20.608Z,102419.63
2023-03-04T00:49:20.893Z,102419.13
2023-03-04T00:50:21.007Z,102419.06
2023-03-04T00:51:21.188Z,102418.73
2023-03-04T00:52:21.701Z,102418.66
2023-03-04T00:53:21.842Z,102417.90
2023-03-04T00:54:22.030Z,102417.59
2023-03-04T00:55:22.149Z,102416.70
2023-03-04T00:56:23.079Z,102416.44
2023-03-04T00:57:23.431Z,102415.61
2023-03-04T00:58:23.846Z,102415.30
2023-03-04T00:59:24.264Z,102414.48
2023-03-04T01:00:25.222Z,102413.88
2023-03-04T01:01:25.512Z,102413.39
2023-03-04T01:01:34.249Z,102426.48
2023-03-04T01:02:34.364Z,102400.23
2023-03-04T01:03:34.852Z,102399.74
2023-03-04T01:04:35.206Z,102399.64
2023-03-04T01:05:35.985Z,102399.87
2023-03-04T01:06:36.314Z,102399.87
2023-03-04T01:07:36.626Z,102399.71
2023-03-04T01:08:36.716Z,102399.81
2023-03-04T01:09:37.486Z,102399.38
2023-03-04T01:10:37.626Z,102398.95
2023-03-04T01:11:38.487Z,102399.13
2023-03-04T01:12:38.667Z,102399.19
2023-03-04T01:13:38.931Z,102398.33
2023-03-04T01:14:39.641Z,102398.06
2023-03-04T01:15:39.901Z,102397.80
2023-03-04T01:16:40.235Z,102396.77
2023-03-04T01:17:40.336Z,102396.18
2023-03-04T01:18:40.572Z,102396.15
2023-03-04T01:19:41.142Z,102396.09
2023-03-04T01:20:41.386Z,102395.81
2023-03-04T01:21:42.024Z,102395.55
2023-03-04T01:22:42.465Z,102394.47
2023-03-04T01:23:42.933Z,102393.47
2023-03-04T01:24:43.377Z,102392.78
2023-03-04T01:25:50.901Z,102392.95
2023-03-04T01:26:44.066Z,102392.67
2023-03-04T01:27:44.558Z,102392.45
2023-03-04T01:28:44.731Z,102392.14
2023-03-04T01:29:45.410Z,102391.48
2023-03-04T01:30:46.213Z,102390.69
2023-03-04T01:31:46.697Z,102390.02
2023-03-04T01:32:47.136Z,102389.19
2023-03-04T01:33:47.758Z,102388.89
2023-03-04T01:34:48.396Z,102387.92
2023-03-04T01:34:57.065Z,102377.09
2023-03-04T01:35:57.518Z,102378.78
2023-03-04T01:36:58.381Z,102378.28
2023-03-04T01:37:58.537Z,102377.95
2023-03-04T01:38:59.054Z,102376.86
2023-03-04T01:39:59.643Z,102376.46
2023-03-04T01:41:00.436Z,102375.86
2023-03-04T01:42:01.184Z,102375.77
2023-03-04T01:43:01.930Z,102374.77
2023-03-04T01:44:02.338Z,102374.44
2023-03-04T01:45:02.542Z,102373.77
2023-03-04T01:46:03.093Z,102373.02
2023-03-04T01:47:03.174Z,102372.12
2023-03-04T01:48:03.476Z,102370.95
2023-03-04T01:49:03.951Z,102370.98
2023-03-04T01:50:04.011Z,102370.33
2023-03-04T01:51:04.691Z,102369.59
2023-03-04T01:52:05.115Z,102368.83
2023-03-04T01:53:05.199Z,102367.77
2023-03-04T01:54:05.307Z,102366.67
2023-03-04T01:55:06.342Z,102366.28
2023-03-04T01:56:06.608Z,102365.55
2023-03-04T01:57:06.705Z,102364.05
2023-03-04T01:58:06.684Z,102363.39
2023-03-04T01:59:10.317Z,102361.92
2023-03-04T02:00:07.794Z,102360.70
2023-03-04T02:01:07.853Z,102360.03
2023-03-04T02:02:08.492Z,102359.27
2023-03-04T02:03:09.287Z,102358.18
2023-03-04T02:04:10.258Z,102357.19
2023-03-04T02:05:10.597Z,102355.36
2023-03-04T02:06:11.010Z,102353.88
2023-03-04T02:07:11.461Z,102352.81
2023-03-04T02:08:12.413Z,102351.48
2023-03-04T02:08:21.070Z,102354.11
2023-03-04T02:09:21.999Z,102338.50
2023-03-04T02:10:22.783Z,102337.73
2023-03-04T02:11:22.933Z,102337.34
2023-03-04T02:12:23.736Z,102336.91
2023-03-04T02:13:24.552Z,102335.78
2023-03-04T02:14:24.952Z,102335.37
2023-03-04T02:15:25.074Z,102335.11
2023-03-04T02:16:25.993Z,102334.81
2023-03-04T02:17:26.078Z,102334.48
2023-03-04T02:18:26.861Z,102333.75
2023-03-04T02:19:27.729Z,102333.84
2023-03-04T02:20:28.064Z,102333.58
2023-03-04T02:21:28.126Z,102333.18
2023-03-04T02:22:28.198Z,102332.84
2023-03-04T02:23:29.091Z,102332.09
2023-03-04T02:24:29.408Z,102331.59
2023-03-04T02:25:29.473Z,102331.19
2023-03-04T02:26:30.215Z,102330.43
2023-03-04T02:27:30.273Z,102330.00
2023-03-04T02:28:31.119Z,102329.84
2023-03-04T02:29:32.069Z,102329.94
2023-03-04T02:30:32.552Z,102329.94
2023-03-04T02:31:33.479Z,102329.10
2023-03-04T02:32:34.442Z,102328.70
2023-03-04T02:33:35.265Z,102328.28
2023-03-04T02:34:35.393Z,102328.20
2023-03-04T02:35:35.546Z,102327.55
2023-03-04T02:36:35.831Z,102328.11
2023-03-04T02:37:35.990Z,102327.44
2023-03-04T02:38:37.082Z,102326.95
2023-03-04T02:39:36.657Z,102327.14
2023-03-04T02:39:45.355Z,102335.98
2023-03-04T02:40:45.906Z,102319.16
2023-03-04T02:41:46.094Z,102319.16
2023-03-04T02:42:46.204Z,102319.09
2023-03-04T02:43:47.083Z,102319.58
2023-03-04T02:44:47.221Z,102319.78
2023-03-04T02:45:47.944Z,102319.52
2023-03-04T02:46:48.233Z,102319.64
2023-03-04T02:47:48.885Z,102319.41
2023-03-04T02:48:49.867Z,102319.16
2023-03-04T02:49:50.147Z,102319.36
2023-03-04T02:50:50.328Z,102319.25
2023-03-04T02:51:50.596Z,102319.11
2023-03-04T02:52:50.610Z,102319.39
2023-03-04T02:53:51.492Z,102318.69
2023-03-04T02:54:52.448Z,102318.55
2023-03-04T02:55:53.010Z,102318.28
2023-03-04T02:56:53.042Z,102317.80
2023-03-04T02:57:53.501Z,102317.33
2023-03-04T02:58:54.427Z,102317.65
2023-03-04T02:59:55.283Z,102317.01
2023-03-04T03:00:56.182Z,102316.30
2023-03-04T03:01:56.317Z,102316.02
2023-03-04T03:02:56.621Z,102315.58
2023-03-04T03:03:57.513Z,102315.97
2023-03-04T03:04:57.670Z,102315.42
2023-03-04T03:05:58.173Z,102315.05
2023-03-04T03:06:58.362Z,102315.43
2023-03-04T03:07:59.332Z,102315.15
2023-03-04T03:08:59.802Z,102314.67
2023-03-04T03:10:00.156Z,102315.13
2023-03-04T03:11:00.954Z,102315.08
2023-03-04T03:11:12.160Z,102335.90
2023-03-04T03:12:13.034Z,102319.05
2023-03-04T03:13:14.034Z,102317.98
2023-03-04T03:14:14.127Z,102317.66
2023-03-04T03:15:15.097Z,102316.99
2023-03-04T03:16:16.144Z,102316.73
2023-03-04T03:17:16.252Z,102315.66
2023-03-04T03:18:16.426Z,102315.00
2023-03-04T03:19:16.564Z,102314.70
2023-03-04T03:20:17.334Z,102313.59
2023-03-04T03:21:17.436Z,102313.46
2023-03-04T03:22:17.424Z,102313.39
2023-03-04T03:23:17.420Z,102312.66
2023-03-04T03:24:17.733Z,102311.33
2023-03-04T03:25:17.874Z,102310.13
2023-03-04T03:26:18.325Z,102309.31
2023-03-04T03:27:18.357Z,102308.45
2023-03-04T03:28:18.660Z,102307.79
2023-03-04T03:29:19.469Z,102307.86
2023-03-04T03:30:20.364Z,102307.20
2023-03-04T03:31:20.561Z,102306.60
2023-03-04T03:32:20.552Z,102306.51
2023-03-04T03:33:21.382Z,102305.68
2023-03-04T03:34:22.356Z,102304.92
2023-03-04T03:35:22.822Z,102304.56
2023-03-04T03:36:22.881Z,102304.47
2023-03-04T03:37:23.710Z,102303.70
2023-03-04T03:38:24.617Z,102303.09
2023-03-04T03:39:25.536Z,102303.00
2023-03-04T03:40:26.475Z,102302.91
2023-03-04T03:41:27.479Z,102302.64
2023-03-04T03:42:28.196Z,102301.88
2023-03-04T03:43:29.043Z,102301.29
2023-03-04T03:43:37.646Z,102308.83
2023-03-04T03:44:37.787Z,102295.38
2023-03-04T03:45:38.742Z,102295.13
2023-03-04T03:46:39.622Z,102295.38
2023-03-04T03:47:39.634Z,102295.22
2023-03-04T03:48:39.821Z,102295.28
2023-03-04T03:49:40.247Z,102295.02
2023-03-04T03:50:40.736Z,102294.80
2023-03-04T03:51:40.872Z,102294.70
2023-03-04T03:52:41.697Z,102294.44
2023-03-04T03:53:42.464Z,102293.94
2023-03-04T03:54:43.407Z,102294.10
2023-03-04T03:55:43.454Z,102294.10
2023-03-04T03:56:43.689Z,102293.18
2023-03-04T03:57:45.716Z,102293.18
2023-03-04T03:58:44.815Z,102293.61
2023-03-04T03:59:44.933Z,102293.61
2023-03-04T04:00:45.338Z,102293.01
2023-03-04T04:01:45.755Z,102293.01
2023-03-04T04:02:46.639Z,102293.51
2023-03-04T04:03:47.345Z,102293.18
2023-03-04T04:04:47.809Z,102292.94
2023-03-04T04:05:48.102Z,102292.94
2023-03-04T04:06:48.312Z,102292.54
2023-03-04T04:07:48.623Z,102292.70
2023-03-04T04:08:48.864Z,102292.23
2023-03-04T04:09:49.500Z,102292.06
2023-03-04T04:10:49.701Z,102291.98
2023-03-04T04:11:50.445Z,102291.95
2023-03-04T04:12:51.422Z,102291.47
2023-03-04T04:13:51.520Z,102291.00
2023-03-04T04:14:51.692Z,102290.53
2023-03-04T04:15:51.847Z,102290.15
2023-03-04T04:16:00.528Z,102300.86
2023-03-04T04:17:00.573Z,102278.02
2023-03-04T04:18:00.680Z,102278.19
2023-03-04T04:19:00.782Z,102278.02
2023-03-04T04:20:01.067Z,102278.34
2023-03-04T04:21:01.929Z,102278.45
2023-03-04T04:22:02.744Z,102278.21
2023-03-04T04:23:03.739Z,102278.31
2023-03-04T04:24:04.107Z,102278.20
2023-03-04T04:25:05.115Z,102278.04
2023-03-04T04:26:05.121Z,102277.97
2023-03-04T04:27:05.253Z,102277.31
2023-03-04T04:28:05.309Z,102276.97
2023-03-04T04:29:05.487Z,102277.00
2023-03-04T04:30:05.713Z,102276.16
2023-03-04T04:31:06.096Z,102275.69
2023-03-04T04:32:07.022Z,102274.86
2023-03-04T04:33:07.807Z,102274.48
2023-03-04T04:34:08.497Z,102273.05
2023-03-04T04:35:09.276Z,102272.48
2023-03-04T04:36:09.905Z,102272.34
2023-03-04T04:37:10.023Z,102271.52
2023-03-04T04:38:10.196Z,102270.70
2023-03-04T04:39:10.935Z,102269.97
2023-03-04T04:40:10.966Z,102268.73
2023-03-04T04:41:11.172Z,102268.23
2023-03-04T04:42:11.988Z,102267.33
2023-03-04T04:43:12.200Z,102267.27
2023-03-04T04:44:13.116Z,102266.27
2023-03-04T04:45:13.667Z,102265.44
2023-03-04T04:46:13.904Z,102264.44
2023-03-04T04:47:14.760Z,102264.11
2023-03-04T04:48:15.006Z,102263.84
2023-03-04T04:49:15.733Z,102263.28
2023-03-04T04:49:27.393Z,102265.60
2023-03-04T04:50:27.601Z,102261.14
2023-03-04T04:51:28.574Z,102260.87
2023-03-04T04:52:28.642Z,102260.91
2023-03-04T04:53:29.421Z,102260.50
2023-03-04T04:54:29.774Z,102260.50
2023-03-04T04:55:30.461Z,102260.20
2023-03-04T04:56:30.976Z,102259.78
2023-03-04T04:57:31.709Z,102259.62
2023-03-04T04:58:32.487Z,102259.38
2023-03-04T04:59:32.891Z,102259.34
2023-03-04T05:00:33.447Z,102258.83
2023-03-04T05:01:33.608Z,102258.20
2023-03-04T05:02:33.671Z,102258.45
2023-03-04T05:03:33.914Z,102258.38
2023-03-04T05:04:34.743Z,102258.30
2023-03-04T05:05:35.150Z,102257.34
2023-03-04T05:06:35.395Z,102256.83
2023-03-04T05:07:36.144Z,102256.52
2023-03-04T05:08:36.394Z,102255.69
2023-03-04T05:09:36.752Z,102255.62
2023-03-04T05:10:36.963Z,102255.45
2023-03-04T05:11:37.138Z,102254.81
2023-03-04T05:12:37.296Z,102254.31
2023-03-04T05:13:38.119Z,102254.08
2023-03-04T05:14:38.647Z,102253.73
2023-03-04T05:15:40.688Z,102254.09
2023-03-04T05:16:39.855Z,102254.25
2023-03-04T05:17:40.651Z,102254.02
2023-03-04T05:18:42.581Z,102254.19
2023-03-04T05:19:41.539Z,102254.11
2023-03-04T05:20:41.696Z,102254.05
2023-03-04T05:21:41.768Z,102254.47
2023-03-04T05:22:42.003Z,102254.54
2023-03-04T05:23:42.850Z,102254.47
2023-03-04T05:24:43.588Z,102254.49
2023-03-04T05:24:52.836Z,102285.83
2023-03-04T05:25:53.298Z,102256.00
2023-03-04T05:26:54.046Z,102255.67
2023-03-04T05:27:54.772Z,102256.10
2023-03-04T05:28:55.182Z,102256.33
2023-03-04T05:29:56.141Z,102255.94
2023-03-04T05:30:56.300Z,102255.95
2023-03-04T05:31:57.029Z,102255.31
2023-03-04T05:32:57.078Z,102255.47
2023-03-04T05:33:58.449Z,102255.17
2023-03-04T05:34:57.530Z,102254.76
2023-03-04T05:35:57.994Z,102255.02
2023-03-04T05:36:58.316Z,102254.98
2023-03-04T05:37:58.599Z,102255.04
2023-03-04T05:38:58.840Z,102254.47
2023-03-04T05:39:59.802Z,102254.73
2023-03-04T05:41:00.611Z,102254.75
2023-03-04T05:42:01.247Z,102254.42
2023-03-04T05:43:02.218Z,102254.48
2023-03-04T05:44:02.293Z,102254.09
2023-03-04T05:45:04.083Z,102254.28
2023-03-04T05:46:03.665Z,102254.38
2023-03-04T05:47:03.924Z,102254.06
2023-03-04T05:48:04.034Z,102253.92
2023-03-04T05:49:04.215Z,102254.00
2023-03-04T05:50:04.997Z,102254.43
2023-03-04T05:51:05.248Z,102254.52
2023-03-04T05:52:06.020Z,102254.45
2023-03-04T05:53:06.853Z,102254.31
2023-03-04T05:54:07.308Z,102254.40
2023-03-04T05:55:07.875Z,102254.66
2023-03-04T05:56:08.516Z,102255.02
2023-03-04T05:57:08.852Z,102254.67
2023-03-04T05:58:09.718Z,102255.20
2023-03-04T05:58:18.386Z,102280.14
2023-03-04T05:59:18.455Z,102259.98
2023-03-04T06:00:18.921Z,102259.71
2023-03-04T06:01:18.945Z,102259.31
2023-03-04T06:02:19.508Z,102259.31
2023-03-04T06:03:19.499Z,102258.97
2023-03-04T06:04:19.733Z,102258.71
2023-03-04T06:05:20.371Z,102259.31
2023-03-04T06:06:20.554Z,102260.14
2023-03-04T06:07:20.743Z,102260.64
2023-03-04T06:08:20.956Z,102260.72
2023-03-04T06:09:21.167Z,102262.05
2023-03-04T06:10:21.877Z,102262.12
2023-03-04T06:11:22.910Z,102262.55
2023-03-04T06:12:23.148Z,102262.44
2023-03-04T06:13:23.839Z,102263.04
2023-03-04T06:14:23.987Z,102263.80
2023-03-04T06:15:24.191Z,102263.82
2023-03-04T06:16:24.796Z,102264.81
2023-03-04T06:17:24.838Z,102265.84
2023-03-04T06:18:25.045Z,102266.42
2023-03-04T06:19:25.914Z,102266.59
2023-03-04T06:20:26.738Z,102266.78
2023-03-04T06:21:27.384Z,102268.10
2023-03-04T06:22:27.715Z,102268.53
2023-03-04T06:23:27.888Z,102268.72
2023-03-04T06:24:28.454Z,102268.81
2023-03-04T06:25:29.443Z,102269.88
2023-03-04T06:26:30.372Z,102270.55
2023-03-04T06:27:30.629Z,102270.70
2023-03-04T06:28:30.671Z,102271.47
2023-03-04T06:28:39.355Z,102302.83
2023-03-04T06:29:40.260Z,102285.88
2023-03-04T06:30:40.580Z,102285.88
2023-03-04T06:31:40.653Z,102285.62
2023-03-04T06:32:41.475Z,102285.88
2023-03-04T06:33:41.497Z,102286.28
2023-03-04T06:34:41.581Z,102286.44
2023-03-04T06:35:41.757Z,102286.28
2023-03-04T06:36:42.417Z,102286.78
2023-03-04T06:37:42.518Z,102286.45
2023-03-04T06:38:42.715Z,102287.34
2023-03-04T06:39:43.424Z,102287.52
2023-03-04T06:40:44.342Z,102288.16
2023-03-04T06:41:44.582Z,102288.66
2023-03-04T06:42:45.382Z,102288.97
2023-03-04T06:43:46.284Z,102289.91
2023-03-04T06:44:47.227Z,102290.14
2023-03-04T06:45:48.093Z,102290.80
2023-03-04T06:46:48.225Z,102291.06
2023-03-04T06:47:48.592Z,102291.46
2023-03-04T06:48:48.844Z,102291.13
2023-03-04T06:49:49.550Z,102292.08
2023-03-04T06:50:50.539Z,102292.58
2023-03-04T06:51:51.379Z,102293.50
2023-03-04T06:52:51.426Z,102294.52
2023-03-04T06:53:51.961Z,102295.78
2023-03-04T06:54:52.369Z,102296.97
2023-03-04T06:55:53.295Z,102297.45
2023-03-04T06:56:53.362Z,102297.98
2023-03-04T06:57:53.450Z,102298.67
2023-03-04T06:58:54.403Z,102298.86
2023-03-04T06:59:55.561Z,102299.44
2023-03-04T07:00:04.770Z,102308.42
2023-03-04T07:01:05.375Z,102298.91
2023-03-04T07:02:06.178Z,102298.65
2023-03-04T07:03:06.195Z,102299.08
2023-03-04T07:04:07.059Z,102299.74
2023-03-04T07:05:07.770Z,102300.31
2023-03-04T07:06:08.762Z,102301.08
2023-03-04T07:07:09.600Z,102301.64
2023-03-04T07:08:09.841Z,102301.88
2023-03-04T07:09:10.749Z,102302.13
2023-03-04T07:10:11.021Z,102302.45
2023-03-04T07:11:11.807Z,102303.22
2023-03-04T07:12:12.498Z,102303.72
2023-03-04T07:13:13.225Z,102304.28
2023-03-04T07:14:13.367Z,102304.55
2023-03-04T07:15:13.803Z,102305.06
2023-03-04T07:16:14.020Z,102305.56
2023-03-04T07:17:14.633Z,102306.25
2023-03-04T07:18:14.838Z,102306.75
2023-03-04T07:19:15.664Z,102306.94
2023-03-04T07:20:15.977Z,102307.28
2023-03-04T07:21:16.207Z,102307.64
2023-03-04T07:22:17.073Z,102307.57
2023-03-04T07:23:17.857Z,102308.66
2023-03-04T07:24:18.816Z,102309.41
2023-03-04T07:25:18.817Z,102310.34
2023-03-04T07:26:19.814Z,102311.19
2023-03-04T07:27:19.965Z,102311.87
2023-03-04T07:28:20.223Z,102312.73
2023-03-04T07:29:21.076Z,102313.06
2023-03-04T07:30:21.881Z,102313.72
2023-03-04T07:31:54.842Z,102337.59
2023-03-04T07:32:55.000Z,102330.00
2023-03-04T07:33:55.410Z,102329.84
2023-03-04T07:34:55.585Z,102329.60
2023-03-04T07:35:56.334Z,102329.53
2023-03-04T07:36:57.025Z,102329.13
2023-03-04T07:37:57.064Z,102329.45
2023-03-04T07:38:58.095Z,102329.78
2023-03-04T07:39:58.123Z,102330.31
2023-03-04T07:40:58.350Z,102330.14
2023-03-04T07:41:58.958Z,102329.83
2023-03-04T07:42:59.168Z,102329.66
2023-03-04T07:43:59.277Z,102329.68
2023-03-04T07:44:59.470Z,102329.72
2023-03-04T07:45:59.560Z,102329.81
2023-03-04T07:47:00.477Z,102329.41
2023-03-04T07:48:00.592Z,102328.94
2023-03-04T07:49:00.823Z,102329.19
2023-03-04T07:50:01.654Z,102328.61
2023-03-04T07:51:01.786Z,102328.47
2023-03-04T07:52:02.225Z,102327.89
2023-03-04T07:53:02.426Z,102327.67
2023-03-04T07:54:03.203Z,102327.62
2023-03-04T07:55:03.376Z,102327.20
2023-03-04T07:56:03.385Z,102327.58
2023-03-04T07:57:03.503Z,102327.27
2023-03-04T07:58:04.015Z,102326.88
2023-03-04T07:59:04.115Z,102327.32
2023-03-04T08:00:05.000Z,102327.17
2023-03-04T08:01:05.220Z,102327.71
2023-03-04T08:02:06.273Z,102327.73
2023-03-04T08:03:06.256Z,102327.34
2023-03-04T08:03:17.079Z,102331.55
2023-03-04T08:04:17.861Z,102328.87
2023-03-04T08:05:18.687Z,102328.72
2023-03-04T08:06:19.587Z,102328.72
2023-03-04T08:07:20.428Z,102328.72
2023-03-04T08:08:20.734Z,102329.31
2023-03-04T08:09:21.697Z,102329.64
2023-03-04T08:10:21.703Z,102329.55
2023-03-04T08:11:21.778Z,102330.13
2023-03-04T08:12:22.613Z,102330.46
2023-03-04T08:13:24.855Z,102331.14
2023-03-04T08:14:22.975Z,102331.00
2023-03-04T08:15:23.832Z,102331.02
2023-03-04T08:16:24.082Z,102330.77
2023-03-04T08:17:25.975Z,102331.30
2023-03-04T08:18:24.854Z,102330.91
2023-03-04T08:19:26.119Z,102330.77
2023-03-04T08:20:26.399Z,102330.52
2023-03-04T08:21:27.208Z,102330.42
2023-03-04T08:22:27.314Z,102330.28
2023-03-04T08:23:27.950Z,102330.44
2023-03-04T08:24:28.823Z,102330.95
2023-03-04T08:25:39.134Z,102331.23
2023-03-04T08:26:29.516Z,102331.34
2023-03-04T08:27:29.514Z,102331.77
2023-03-04T08:28:30.039Z,102331.43
2023-03-04T08:29:30.838Z,102331.61
2023-03-04T08:30:30.983Z,102331.63
2023-03-04T08:31:32.013Z,102331.64
2023-03-04T08:32:32.562Z,102331.57
2023-03-04T08:33:33.270Z,102332.52
2023-03-04T08:34:34.200Z,102332.96
2023-03-04T08:34:44.119Z,102343.64
2023-03-04T08:35:43.452Z,102343.09
2023-03-04T08:36:44.108Z,102342.69
2023-03-04T08:37:45.014Z,102342.84
2023-03-04T08:38:45.515Z,102342.55
2023-03-04T08:39:45.950Z,102342.20
2023-03-04T08:40:46.887Z,102342.20
2023-03-04T08:41:47.224Z,102341.97
2023-03-04T08:42:47.505Z,102342.13
2023-03-04T08:43:48.203Z,102342.39
2023-03-04T08:44:48.534Z,102342.14
2023-03-04T08:45:48.621Z,102341.83
2023-03-04T08:46:48.817Z,102341.69
2023-03-04T08:47:48.926Z,102341.94
2023-03-04T08:48:49.019Z,102341.69
2023-03-04T08:49:49.972Z,102341.55
2023-03-04T08:50:49.986Z,102341.30
2023-03-04T08:51:50.002Z,102340.92
2023-03-04T08:52:50.867Z,102341.42
2023-03-04T08:53:51.025Z,102341.10
2023-03-04T08:54:51.901Z,102340.64
2023-03-04T08:55:52.788Z,102340.75
2023-03-04T08:56:52.826Z,102340.75
2023-03-04T08:57:53.497Z,102340.47
2023-03-04T08:58:53.550Z,102340.73
2023-03-04T08:59:54.212Z,102340.24
2023-03-04T09:00:54.405Z,102340.02
2023-03-04T09:01:54.702Z,102340.28
2023-03-04T09:02:55.422Z,102339.59
2023-03-04T09:03:56.325Z,102338.92
2023-03-04T09:04:56.969Z,102339.05
2023-03-04T09:05:57.010Z,102338.50
2023-03-04T09:06:05.691Z,102350.34
2023-03-04T09:07:06.073Z,102341.40
2023-03-04T09:08:06.936Z,102341.16
2023-03-04T09:09:07.694Z,102340.25
2023-03-04T09:10:08.465Z,102340.08
2023-03-04T09:11:09.273Z,102340.00
2023-03-04T09:12:10.216Z,102340.25
2023-03-04T09:13:10.318Z,102339.77
2023-03-04T09:14:10.496Z,102339.38
2023-03-04T09:15:12.065Z,102339.15
2023-03-04T09:16:10.919Z,102338.81
2023-03-04T09:17:11.102Z,102339.02
2023-03-04T09:18:11.963Z,102338.85
2023-03-04T09:19:12.507Z,102339.31
2023-03-04T09:20:12.705Z,102339.27
2023-03-04T09:21:12.851Z,102338.59
2023-03-04T09:22:13.042Z,102338.37
2023-03-04T09:23:13.514Z,102338.50
2023-03-04T09:24:14.437Z,102338.76
2023-03-04T09:25:15.320Z,102338.86
2023-03-04T09:26:16.237Z,102339.05
2023-03-04T09:27:17.118Z,102339.00
2023-03-04T09:28:17.946Z,102338.92
2023-03-04T09:29:18.789Z,102338.95
2023-03-04T09:30:18.818Z,102339.22
2023-03-04T09:31:19.421Z,102338.98
2023-03-04T09:32:20.190Z,102339.02
2023-03-04T09:33:20.987Z,102339.78
2023-03-04T09:34:21.789Z,102339.88
2023-03-04T09:35:22.887Z,102340.14
2023-03-04T09:36:22.832Z,102340.50
2023-03-04T09:37:23.685Z,102340.69
2023-03-04T09:38:24.252Z,102340.45
2023-03-04T09:38:34.937Z,102339.88
2023-03-04T09:39:34.918Z,102345.58
2023-03-04T09:40:35.294Z,102344.91
2023-03-04T09:41:35.383Z,102345.09
2023-03-04T09:42:35.442Z,102344.25
2023-03-04T09:43:35.524Z,102344.11
2023-03-04T09:44:36.090Z,102344.09
2023-03-04T09:45:36.343Z,102343.62
2023-03-04T09:46:37.003Z,102343.80
2023-03-04T09:47:37.240Z,102343.64
2023-03-04T09:48:37.444Z,102343.88
2023-03-04T09:49:37.532Z,102344.32
2023-03-04T09:50:37.896Z,102344.42
2023-03-04T09:51:38.874Z,102344.51
2023-03-04T09:52:39.791Z,102344.91
2023-03-04T09:53:40.658Z,102345.28
2023-03-04T09:54:40.686Z,102345.52
2023-03-04T09:55:41.282Z,102345.20
2023-03-04T09:56:41.497Z,102345.70
2023-03-04T09:57:41.662Z,102345.72
2023-03-04T09:58:42.396Z,102345.80
2023-03-04T09:59:42.742Z,102345.91
2023-03-04T10:00:43.303Z,102345.41
2023-03-04T10:01:43.133Z,102345.42
2023-03-04T10:02:43.925Z,102345.10
2023-03-04T10:03:44.147Z,102345.11
2023-03-04T10:04:44.983Z,102345.13
2023-03-04T10:05:45.649Z,102344.61
2023-03-04T10:06:46.610Z,102344.53
2023-03-04T10:07:47.365Z,102344.03
2023-03-04T10:08:48.208Z,102343.80
2023-03-04T10:10:54.679Z,102356.75
2023-03-04T10:11:54.591Z,102341.70
2023-03-04T10:12:55.465Z,102341.04
2023-03-04T10:13:56.366Z,102340.53
2023-03-04T10:14:56.396Z,102339.97
2023-03-04T10:15:57.343Z,102339.62
2023-03-04T10:16:57.368Z,102338.80
2023-03-04T10:17:57.606Z,102338.05
2023-03-04T10:18:57.680Z,102337.81
2023-03-04T10:19:57.961Z,102337.16
2023-03-04T10:20:58.121Z,102337.23
2023-03-04T10:21:59.343Z,102337.34
2023-03-04T10:22:58.472Z,102336.91
2023-03-04T10:23:59.895Z,102336.44
2023-03-04T10:24:59.536Z,102336.27
2023-03-04T10:25:59.721Z,102335.95
2023-03-04T10:26:59.948Z,102335.42
2023-03-04T10:28:03.345Z,102335.20
2023-03-04T10:29:00.833Z,102334.87
2023-03-04T10:30:01.454Z,102335.03
2023-03-04T10:31:02.364Z,102334.64
2023-03-04T10:32:02.841Z,102334.32
2023-03-04T10:33:03.652Z,102333.81
2023-03-04T10:34:03.792Z,102333.55
2023-03-04T10:35:03.787Z,102333.73
2023-03-04T10:36:04.262Z,102333.73
2023-03-04T10:37:04.467Z,102333.00
2023-03-04T10:38:04.970Z,102332.58
2023-03-04T10:39:05.197Z,102332.94
2023-03-04T10:40:05.504Z,102332.95
2023-03-04T10:41:05.666Z,102332.27
2023-03-04T10:41:15.865Z,102346.00
2023-03-04T10:42:16.273Z,102331.91
2023-03-04T10:43:18.322Z,102331.84
2023-03-04T10:44:16.837Z,102331.66
2023-03-04T10:46:18.081Z,102331.75
2023-03-04T10:48:02.323Z,102331.92
2023-03-04T10:49:02.915Z,102332.52
2023-03-04T10:50:03.847Z,102333.05
2023-03-04T10:51:04.088Z,102332.61
2023-03-04T10:52:04.150Z,102332.20
2023-03-04T10:53:04.865Z,102331.89
2023-03-04T10:54:05.414Z,102332.31
2023-03-04T10:55:23.279Z,102333.23
2023-03-04T10:56:06.420Z,102332.83
2023-03-04T10:57:09.287Z,102333.27
2023-03-04T10:58:07.918Z,102333.84
2023-03-04T10:59:16.975Z,102333.69
2023-03-04T11:00:15.831Z,102334.13
2023-03-04T11:01:08.732Z,102334.14
2023-03-04T11:02:08.887Z,102334.49
2023-03-04T11:03:09.321Z,102334.98
2023-03-04T11:04:10.123Z,102334.91
2023-03-04T11:05:10.707Z,102335.23
2023-03-04T11:06:11.179Z,102335.50
2023-03-04T11:07:12.190Z,102335.52
2023-03-04T11:08:12.973Z,102336.01
2023-03-04T11:09:13.287Z,102335.87
2023-03-04T11:10:13.811Z,102336.13
2023-03-04T11:11:15.480Z,102336.28
2023-03-04T11:11:26.163Z,102354.67
2023-03-04T11:12:26.969Z,102334.25
2023-03-04T11:13:27.671Z,102334.34
2023-03-04T11:14:27.952Z,102334.66
2023-03-04T11:15:28.968Z,102334.24
2023-03-04T11:16:30.485Z,102333.75
2023-03-04T11:17:29.810Z,102333.81